sensor_id;sensor_type;location;lat;lon;timestamp;temperature;humidity
13052;DHT22;6592;47.484;9.726;2023-02-28T00:01:27;-0.70;99.90
13052;DHT22;6592;47.484;9.726;2023-02-28T00:03:55;-0.80;99.90
13052;DHT22;6592;47.484;9.726;2023-02-28T00:06:24;-0.80;99.90
13052;DHT22;6592;47.484;9.726;2023-02-28T00:08:52;-0.90;99.90
13052;DHT22;6592;47.484;9.726;2023-02-28T00:11:21;-0.90;99.90
13052;DHT22;6592;47.484;9.726;2023-02-28T00:13:49;-0.90;99.90
13052;DHT22;6592;47.484;9.726;2023-02-28T00:16:19;-0.90;99.90
13052;DHT22;6592;47.484;9.726;2023-02-28T00:18:50;-0.90;99.90
13052;DHT22;6592;47.484;9.726;2023-02-28T00:21:19;-0.90;99.90
13052;DHT22;6592;47.484;9.726;2023-02-28T00:23:48;-0.90;99.90
13052;DHT22;6592;47.484;9.726;2023-02-28T00:26:16;-0.90;99.90
13052;DHT22;6592;47.484;9.726;2023-02-28T00:28:47;-0.90;99.90
13052;DHT22;6592;47.484;9.726;2023-02-28T00:31:16;-0.90;99.90
13052;DHT22;6592;47.484;9.726;2023-02-28T00:33:45;-0.90;99.90
13052;DHT22;6592;47.484;9.726;2023-02-28T00:36:14;-0.90;99.90
13052;DHT22;6592;47.484;9.726;2023-02-28T00:38:43;-0.90;99.90
13052;DHT22;6592;47.484;9.726;2023-02-28T00:41:11;-1.00;99.90
13052;DHT22;6592;47.484;9.726;2023-02-28T00:43:40;-1.00;99.90
13052;DHT22;6592;47.484;9.726;2023-02-28T00:46:08;-1.00;99.90
13052;DHT22;6592;47.484;9.726;2023-02-28T00:48:37;-1.10;99.90
13052;DHT22;6592;47.484;9.726;2023-02-28T00:51:05;-1.10;99.90
13052;DHT22;6592;47.484;9.726;2023-02-28T00:53:35;-1.10;99.90
13052;DHT22;6592;47.484;9.726;2023-02-28T00:56:04;-1.10;99.90
13052;DHT22;6592;47.484;9.726;2023-02-28T00:58:33;-1.10;99.90
13052;DHT22;6592;47.484;9.726;2023-02-28T01:01:01;-1.00;99.90
13052;DHT22;6592;47.484;9.726;2023-02-28T01:03:29;-1.20;99.90
13052;DHT22;6592;47.484;9.726;2023-02-28T01:05:58;-1.20;99.90
13052;DHT22;6592;47.484;9.726;2023-02-28T01:08:26;-1.30;99.90
13052;DHT22;6592;47.484;9.726;2023-02-28T01:10:57;-1.30;99.90
13052;DHT22;6592;47.484;9.726;2023-02-28T01:13:25;-1.40;99.90
13052;DHT22;6592;47.484;9.726;2023-02-28T01:15:55;-1.40;99.90
13052;DHT22;6592;47.484;9.726;2023-02-28T01:18:24;-1.40;99.90
13052;DHT22;6592;47.484;9.726;2023-02-28T01:20:52;-1.50;99.90
13052;DHT22;6592;47.484;9.726;2023-02-28T01:23:21;-1.50;99.90
13052;DHT22;6592;47.484;9.726;2023-02-28T01:25:50;-1.50;99.90
13052;DHT22;6592;47.484;9.726;2023-02-28T01:28:21;-1.50;99.90
13052;DHT22;6592;47.484;9.726;2023-02-28T01:30:50;-1.50;99.90
13052;DHT22;6592;47.484;9.726;2023-02-28T01:33:18;-1.50;99.90
13052;DHT22;6592;47.484;9.726;2023-02-28T01:35:47;-1.50;99.90
13052;DHT22;6592;47.484;9.726;2023-02-28T01:38:15;-1.50;99.90
13052;DHT22;6592;47.484;9.726;2023-02-28T01:40:49;-1.50;99.90
13052;DHT22;6592;47.484;9.726;2023-02-28T01:43:22;-1.40;99.90
13052;DHT22;6592;47.484;9.726;2023-02-28T01:45:51;-1.40;99.90
13052;DHT22;6592;47.484;9.726;2023-02-28T01:48:22;-1.40;99.90
13052;DHT22;6592;47.484;9.726;2023-02-28T01:50:53;-1.40;99.90
13052;DHT22;6592;47.484;9.726;2023-02-28T01:53:27;-1.50;99.90
13052;DHT22;6592;47.484;9.726;2023-02-28T01:55:57;-1.50;99.90
13052;DHT22;6592;47.484;9.726;2023-02-28T01:58:27;-1.30;99.90
13052;DHT22;6592;47.484;9.726;2023-02-28T02:00:55;-1.50;99.90
13052;DHT22;6592;47.484;9.726;2023-02-28T02:03:24;-1.30;99.90
13052;DHT22;6592;47.484;9.726;2023-02-28T02:05:52;-1.50;99.90
13052;DHT22;6592;47.484;9.726;2023-02-28T02:08:23;-1.60;99.90
13052;DHT22;6592;47.484;9.726;2023-02-28T02:10:54;-0.90;99.90
13052;DHT22;6592;47.484;9.726;2023-02-28T02:13:46;-1.60;99.90
13052;DHT22;6592;47.484;9.726;2023-02-28T02:16:31;-1.60;99.90
13052;DHT22;6592;47.484;9.726;2023-02-28T02:19:14;-1.60;99.90
13052;DHT22;6592;47.484;9.726;2023-02-28T02:25:19;-1.70;99.90
13052;DHT22;6592;47.484;9.726;2023-02-28T02:28:09;-1.80;99.90
13052;DHT22;6592;47.484;9.726;2023-02-28T02:30:58;-1.80;99.90
13052;DHT22;6592;47.484;9.726;2023-02-28T02:34:09;-1.70;99.90
13052;DHT22;6592;47.484;9.726;2023-02-28T02:36:44;-1.70;99.90
13052;DHT22;6592;47.484;9.726;2023-02-28T02:39:20;-1.70;99.90
13052;DHT22;6592;47.484;9.726;2023-02-28T02:41:53;-1.80;99.90
13052;DHT22;6592;47.484;9.726;2023-02-28T02:44:24;-1.80;99.90
13052;DHT22;6592;47.484;9.726;2023-02-28T02:46:58;-1.80;99.90
13052;DHT22;6592;47.484;9.726;2023-02-28T02:49:32;-1.80;99.90
13052;DHT22;6592;47.484;9.726;2023-02-28T02:52:04;-1.70;99.90
13052;DHT22;6592;47.484;9.726;2023-02-28T02:54:36;-1.70;99.90
13052;DHT22;6592;47.484;9.726;2023-02-28T02:57:07;-1.70;99.90
13052;DHT22;6592;47.484;9.726;2023-02-28T02:59:39;-1.70;99.90
13052;DHT22;6592;47.484;9.726;2023-02-28T03:02:11;-1.30;99.90
13052;DHT22;6592;47.484;9.726;2023-02-28T03:04:47;-1.50;99.90
13052;DHT22;6592;47.484;9.726;2023-02-28T03:07:16;-1.60;99.90
13052;DHT22;6592;47.484;9.726;2023-02-28T03:09:50;-1.40;99.90
13052;DHT22;6592;47.484;9.726;2023-02-28T03:12:20;-1.40;99.90
13052;DHT22;6592;47.484;9.726;2023-02-28T03:14:54;-1.60;99.90
13052;DHT22;6592;47.484;9.726;2023-02-28T03:17:47;-1.50;99.90
13052;DHT22;6592;47.484;9.726;2023-02-28T03:20:32;-1.40;99.90
13052;DHT22;6592;47.484;9.726;2023-02-28T03:23:14;-1.60;99.90
13052;DHT22;6592;47.484;9.726;2023-02-28T03:25:54;-1.50;99.90
13052;DHT22;6592;47.484;9.726;2023-02-28T03:28:31;-1.50;99.90
13052;DHT22;6592;47.484;9.726;2023-02-28T03:31:06;-1.30;99.90
13052;DHT22;6592;47.484;9.726;2023-02-28T03:33:38;-1.40;99.90
13052;DHT22;6592;47.484;9.726;2023-02-28T03:36:13;-1.10;99.90
13052;DHT22;6592;47.484;9.726;2023-02-28T03:38:45;-1.30;99.90
13052;DHT22;6592;47.484;9.726;2023-02-28T03:41:17;-1.10;99.90
13052;DHT22;6592;47.484;9.726;2023-02-28T03:43:49;-1.20;99.90
13052;DHT22;6592;47.484;9.726;2023-02-28T03:46:21;-1.20;99.90
13052;DHT22;6592;47.484;9.726;2023-02-28T03:48:54;-1.10;99.90
13052;DHT22;6592;47.484;9.726;2023-02-28T03:51:26;-1.20;99.90
13052;DHT22;6592;47.484;9.726;2023-02-28T03:53:59;-1.10;99.90
13052;DHT22;6592;47.484;9.726;2023-02-28T03:56:32;-1.10;99.90
13052;DHT22;6592;47.484;9.726;2023-02-28T03:59:05;-1.00;99.90
13052;DHT22;6592;47.484;9.726;2023-02-28T04:01:38;-1.00;99.90
13052;DHT22;6592;47.484;9.726;2023-02-28T04:04:09;-1.10;99.90
13052;DHT22;6592;47.484;9.726;2023-02-28T04:06:39;-1.10;99.90
13052;DHT22;6592;47.484;9.726;2023-02-28T04:09:09;-1.10;99.90
13052;DHT22;6592;47.484;9.726;2023-02-28T04:11:39;-1.10;99.90
13052;DHT22;6592;47.484;9.726;2023-02-28T04:14:09;-1.20;99.90
13052;DHT22;6592;47.484;9.726;2023-02-28T04:16:39;-1.20;99.90
13052;DHT22;6592;47.484;9.726;2023-02-28T04:19:09;-1.20;99.90
13052;DHT22;6592;47.484;9.726;2023-02-28T04:21:41;-1.20;99.90
13052;DHT22;6592;47.484;9.726;2023-02-28T04:24:10;-1.30;99.90
13052;DHT22;6592;47.484;9.726;2023-02-28T04:26:42;-1.40;99.90
13052;DHT22;6592;47.484;9.726;2023-02-28T04:29:13;-1.40;99.90
13052;DHT22;6592;47.484;9.726;2023-02-28T04:31:41;-1.50;99.90
13052;DHT22;6592;47.484;9.726;2023-02-28T04:34:10;-1.50;99.90
13052;DHT22;6592;47.484;9.726;2023-02-28T04:36:40;-1.50;99.90
13052;DHT22;6592;47.484;9.726;2023-02-28T04:39:08;-1.50;99.90
13052;DHT22;6592;47.484;9.726;2023-02-28T04:41:37;-1.50;99.90
13052;DHT22;6592;47.484;9.726;2023-02-28T04:44:06;-1.60;99.90
13052;DHT22;6592;47.484;9.726;2023-02-28T04:46:34;-1.50;99.90
13052;DHT22;6592;47.484;9.726;2023-02-28T04:49:02;-1.50;99.90
13052;DHT22;6592;47.484;9.726;2023-02-28T04:51:31;-1.50;99.90
13052;DHT22;6592;47.484;9.726;2023-02-28T04:54:00;-1.60;99.90
13052;DHT22;6592;47.484;9.726;2023-02-28T04:56:29;-1.70;99.90
13052;DHT22;6592;47.484;9.726;2023-02-28T04:58:57;-1.50;99.90
13052;DHT22;6592;47.484;9.726;2023-02-28T05:01:28;-1.50;99.90
13052;DHT22;6592;47.484;9.726;2023-02-28T05:03:58;-1.50;99.90
13052;DHT22;6592;47.484;9.726;2023-02-28T05:06:28;-1.50;99.90
13052;DHT22;6592;47.484;9.726;2023-02-28T05:08:56;-1.50;99.90
13052;DHT22;6592;47.484;9.726;2023-02-28T05:11:28;-1.30;99.90
13052;DHT22;6592;47.484;9.726;2023-02-28T05:14:01;-1.30;99.90
13052;DHT22;6592;47.484;9.726;2023-02-28T05:16:30;-1.60;99.90
13052;DHT22;6592;47.484;9.726;2023-02-28T05:18:58;-1.50;99.90
13052;DHT22;6592;47.484;9.726;2023-02-28T05:21:29;-1.40;99.90
13052;DHT22;6592;47.484;9.726;2023-02-28T05:23:59;-1.50;99.90
13052;DHT22;6592;47.484;9.726;2023-02-28T05:26:30;-1.30;99.90
13052;DHT22;6592;47.484;9.726;2023-02-28T05:28:58;-1.50;99.90
13052;DHT22;6592;47.484;9.726;2023-02-28T05:31:26;-1.50;99.90
13052;DHT22;6592;47.484;9.726;2023-02-28T05:33:55;-1.50;99.90
13052;DHT22;6592;47.484;9.726;2023-02-28T05:36:24;-1.60;99.90
13052;DHT22;6592;47.484;9.726;2023-02-28T05:38:52;-1.50;99.90
13052;DHT22;6592;47.484;9.726;2023-02-28T05:41:21;-1.50;99.90
13052;DHT22;6592;47.484;9.726;2023-02-28T05:43:51;-1.60;99.90
13052;DHT22;6592;47.484;9.726;2023-02-28T05:46:19;-1.60;99.90
13052;DHT22;6592;47.484;9.726;2023-02-28T05:48:48;-1.60;99.90
13052;DHT22;6592;47.484;9.726;2023-02-28T05:51:17;-1.70;99.90
13052;DHT22;6592;47.484;9.726;2023-02-28T05:53:46;-1.70;99.90
13052;DHT22;6592;47.484;9.726;2023-02-28T05:56:15;-1.70;99.90
13052;DHT22;6592;47.484;9.726;2023-02-28T05:58:43;-1.70;99.90
13052;DHT22;6592;47.484;9.726;2023-02-28T06:01:25;-1.50;99.90
13052;DHT22;6592;47.484;9.726;2023-02-28T06:03:54;-1.70;99.90
13052;DHT22;6592;47.484;9.726;2023-02-28T06:06:23;-1.70;99.90
13052;DHT22;6592;47.484;9.726;2023-02-28T06:08:51;-1.70;99.90
13052;DHT22;6592;47.484;9.726;2023-02-28T06:11:19;-1.50;99.90
13052;DHT22;6592;47.484;9.726;2023-02-28T06:13:48;-1.50;99.90
13052;DHT22;6592;47.484;9.726;2023-02-28T06:16:16;-1.60;99.90
13052;DHT22;6592;47.484;9.726;2023-02-28T06:18:46;-1.60;99.90
13052;DHT22;6592;47.484;9.726;2023-02-28T06:21:14;-1.50;99.90
13052;DHT22;6592;47.484;9.726;2023-02-28T06:23:42;-1.50;99.90
13052;DHT22;6592;47.484;9.726;2023-02-28T06:26:11;-1.50;99.90
13052;DHT22;6592;47.484;9.726;2023-02-28T06:28:39;-1.50;99.90
13052;DHT22;6592;47.484;9.726;2023-02-28T06:31:09;-1.40;99.90
13052;DHT22;6592;47.484;9.726;2023-02-28T06:33:38;-1.40;99.90
13052;DHT22;6592;47.484;9.726;2023-02-28T06:36:09;-1.50;99.90
13052;DHT22;6592;47.484;9.726;2023-02-28T06:38:39;-1.30;99.90
13052;DHT22;6592;47.484;9.726;2023-02-28T06:41:08;-1.40;99.90
13052;DHT22;6592;47.484;9.726;2023-02-28T06:43:40;-1.30;99.90
13052;DHT22;6592;47.484;9.726;2023-02-28T06:46:12;-1.00;99.90
13052;DHT22;6592;47.484;9.726;2023-02-28T06:48:42;-1.10;99.90
13052;DHT22;6592;47.484;9.726;2023-02-28T06:51:14;-0.90;99.90
13052;DHT22;6592;47.484;9.726;2023-02-28T06:53:43;-1.00;99.90
13052;DHT22;6592;47.484;9.726;2023-02-28T06:56:13;-0.90;99.90
13052;DHT22;6592;47.484;9.726;2023-02-28T06:58:45;-0.80;99.90
13052;DHT22;6592;47.484;9.726;2023-02-28T07:01:13;-0.70;99.90
13052;DHT22;6592;47.484;9.726;2023-02-28T07:03:41;-0.60;99.90
13052;DHT22;6592;47.484;9.726;2023-02-28T07:06:10;-0.30;99.90
13052;DHT22;6592;47.484;9.726;2023-02-28T07:08:39;0.30;99.90
13052;DHT22;6592;47.484;9.726;2023-02-28T07:11:08;1.10;99.90
13052;DHT22;6592;47.484;9.726;2023-02-28T07:13:36;2.00;99.90
13052;DHT22;6592;47.484;9.726;2023-02-28T07:16:06;2.80;99.90
13052;DHT22;6592;47.484;9.726;2023-02-28T07:18:36;3.40;99.90
13052;DHT22;6592;47.484;9.726;2023-02-28T07:21:06;3.30;99.90
13052;DHT22;6592;47.484;9.726;2023-02-28T07:23:34;2.90;99.90
13052;DHT22;6592;47.484;9.726;2023-02-28T07:26:07;2.50;99.90
13052;DHT22;6592;47.484;9.726;2023-02-28T07:28:38;2.10;99.90
13052;DHT22;6592;47.484;9.726;2023-02-28T07:31:07;1.70;99.90
13052;DHT22;6592;47.484;9.726;2023-02-28T07:33:36;1.40;99.90
13052;DHT22;6592;47.484;9.726;2023-02-28T07:36:07;1.00;99.90
13052;DHT22;6592;47.484;9.726;2023-02-28T07:38:36;0.90;99.90
13052;DHT22;6592;47.484;9.726;2023-02-28T07:41:06;0.90;99.90
13052;DHT22;6592;47.484;9.726;2023-02-28T07:43:35;0.90;99.90
13052;DHT22;6592;47.484;9.726;2023-02-28T07:46:04;0.70;99.90
13052;DHT22;6592;47.484;9.726;2023-02-28T07:48:33;0.70;99.90
13052;DHT22;6592;47.484;9.726;2023-02-28T07:51:02;0.70;99.90
13052;DHT22;6592;47.484;9.726;2023-02-28T07:53:30;0.80;99.90
13052;DHT22;6592;47.484;9.726;2023-02-28T07:56:00;0.90;99.90
13052;DHT22;6592;47.484;9.726;2023-02-28T07:58:31;0.90;99.90
13052;DHT22;6592;47.484;9.726;2023-02-28T08:01:05;1.10;99.90
13052;DHT22;6592;47.484;9.726;2023-02-28T08:03:33;1.00;99.90
13052;DHT22;6592;47.484;9.726;2023-02-28T08:06:02;1.00;99.90
13052;DHT22;6592;47.484;9.726;2023-02-28T08:08:30;1.00;99.90
13052;DHT22;6592;47.484;9.726;2023-02-28T08:11:00;1.10;99.90
13052;DHT22;6592;47.484;9.726;2023-02-28T08:13:30;1.10;99.90
13052;DHT22;6592;47.484;9.726;2023-02-28T08:16:01;1.10;99.90
13052;DHT22;6592;47.484;9.726;2023-02-28T08:18:30;1.20;99.90
13052;DHT22;6592;47.484;9.726;2023-02-28T08:21:05;1.30;99.90
13052;DHT22;6592;47.484;9.726;2023-02-28T08:23:33;1.40;99.90
13052;DHT22;6592;47.484;9.726;2023-02-28T08:26:02;1.20;99.90
13052;DHT22;6592;47.484;9.726;2023-02-28T08:28:32;1.10;99.90
13052;DHT22;6592;47.484;9.726;2023-02-28T08:31:01;1.20;99.90
13052;DHT22;6592;47.484;9.726;2023-02-28T08:33:29;1.40;99.90
13052;DHT22;6592;47.484;9.726;2023-02-28T08:35:58;1.50;99.90
13052;DHT22;6592;47.484;9.726;2023-02-28T08:38:26;1.70;99.90
13052;DHT22;6592;47.484;9.726;2023-02-28T08:40:57;1.90;99.90
13052;DHT22;6592;47.484;9.726;2023-02-28T08:43:26;2.20;99.90
13052;DHT22;6592;47.484;9.726;2023-02-28T08:45:56;2.40;99.90
13052;DHT22;6592;47.484;9.726;2023-02-28T08:48:25;2.70;99.90
13052;DHT22;6592;47.484;9.726;2023-02-28T08:50:57;3.00;99.90
13052;DHT22;6592;47.484;9.726;2023-02-28T08:53:34;3.30;99.90
13052;DHT22;6592;47.484;9.726;2023-02-28T08:56:05;3.50;99.90
13052;DHT22;6592;47.484;9.726;2023-02-28T08:58:34;3.60;99.90
13052;DHT22;6592;47.484;9.726;2023-02-28T09:01:09;3.60;99.90
13052;DHT22;6592;47.484;9.726;2023-02-28T09:03:39;3.70;99.90
13052;DHT22;6592;47.484;9.726;2023-02-28T09:06:09;4.10;99.90
13052;DHT22;6592;47.484;9.726;2023-02-28T09:08:38;4.60;99.90
13052;DHT22;6592;47.484;9.726;2023-02-28T09:11:07;5.30;99.90
13052;DHT22;6592;47.484;9.726;2023-02-28T09:13:36;5.90;99.90
13052;DHT22;6592;47.484;9.726;2023-02-28T09:16:06;6.60;99.90
13052;DHT22;6592;47.484;9.726;2023-02-28T09:18:36;7.30;99.90
13052;DHT22;6592;47.484;9.726;2023-02-28T09:21:05;7.90;99.90
13052;DHT22;6592;47.484;9.726;2023-02-28T09:23:34;8.50;99.90
13052;DHT22;6592;47.484;9.726;2023-02-28T09:26:05;9.10;99.90
13052;DHT22;6592;47.484;9.726;2023-02-28T09:28:33;9.50;99.90
13052;DHT22;6592;47.484;9.726;2023-02-28T09:31:02;9.80;99.90
13052;DHT22;6592;47.484;9.726;2023-02-28T09:33:31;10.50;99.90
13052;DHT22;6592;47.484;9.726;2023-02-28T09:36:03;10.60;99.90
13052;DHT22;6592;47.484;9.726;2023-02-28T09:38:31;10.50;99.90
13052;DHT22;6592;47.484;9.726;2023-02-28T09:41:01;11.60;99.90
13052;DHT22;6592;47.484;9.726;2023-02-28T09:43:34;12.30;99.30
13052;DHT22;6592;47.484;9.726;2023-02-28T09:46:10;12.70;98.20
13052;DHT22;6592;47.484;9.726;2023-02-28T09:48:42;13.10;96.90
13052;DHT22;6592;47.484;9.726;2023-02-28T09:51:32;13.50;94.50
13052;DHT22;6592;47.484;9.726;2023-02-28T09:54:01;13.80;95.50
13052;DHT22;6592;47.484;9.726;2023-02-28T09:56:33;14.60;93.00
13052;DHT22;6592;47.484;9.726;2023-02-28T09:59:09;14.70;90.30
13052;DHT22;6592;47.484;9.726;2023-02-28T10:01:43;15.10;88.90
13052;DHT22;6592;47.484;9.726;2023-02-28T10:04:21;16.20;83.80
13052;DHT22;6592;47.484;9.726;2023-02-28T10:06:59;17.40;75.90
13052;DHT22;6592;47.484;9.726;2023-02-28T10:09:32;18.30;70.80
13052;DHT22;6592;47.484;9.726;2023-02-28T10:12:04;19.30;63.70
13052;DHT22;6592;47.484;9.726;2023-02-28T10:14:34;20.00;56.30
13052;DHT22;6592;47.484;9.726;2023-02-28T10:17:06;19.20;54.10
13052;DHT22;6592;47.484;9.726;2023-02-28T10:19:42;18.40;56.20
13052;DHT22;6592;47.484;9.726;2023-02-28T10:22:16;18.80;53.90
13052;DHT22;6592;47.484;9.726;2023-02-28T10:24:46;19.50;53.30
13052;DHT22;6592;47.484;9.726;2023-02-28T10:27:17;20.50;53.70
13052;DHT22;6592;47.484;9.726;2023-02-28T10:29:48;21.50;51.70
13052;DHT22;6592;47.484;9.726;2023-02-28T10:32:18;21.60;49.70
13052;DHT22;6592;47.484;9.726;2023-02-28T10:34:51;22.00;50.10
13052;DHT22;6592;47.484;9.726;2023-02-28T10:37:21;22.80;46.90
13052;DHT22;6592;47.484;9.726;2023-02-28T10:39:50;23.20;45.60
13052;DHT22;6592;47.484;9.726;2023-02-28T10:42:21;22.80;44.10
13052;DHT22;6592;47.484;9.726;2023-02-28T10:45:12;22.90;45.60
13052;DHT22;6592;47.484;9.726;2023-02-28T10:47:49;23.10;43.40
13052;DHT22;6592;47.484;9.726;2023-02-28T10:50:30;23.60;43.90
13052;DHT22;6592;47.484;9.726;2023-02-28T10:53:22;23.90;42.70
13052;DHT22;6592;47.484;9.726;2023-02-28T10:56:00;23.90;41.70
13052;DHT22;6592;47.484;9.726;2023-02-28T10:58:31;23.60;40.20
13052;DHT22;6592;47.484;9.726;2023-02-28T11:01:13;23.60;42.00
13052;DHT22;6592;47.484;9.726;2023-02-28T11:03:42;23.30;41.10
13052;DHT22;6592;47.484;9.726;2023-02-28T11:06:16;23.00;41.70
13052;DHT22;6592;47.484;9.726;2023-02-28T11:08:48;22.20;40.00
13052;DHT22;6592;47.484;9.726;2023-02-28T11:11:18;22.80;40.90
13052;DHT22;6592;47.484;9.726;2023-02-28T11:13:50;23.30;40.40
13052;DHT22;6592;47.484;9.726;2023-02-28T11:16:19;23.60;41.00
13052;DHT22;6592;47.484;9.726;2023-02-28T11:18:49;23.70;39.30
13052;DHT22;6592;47.484;9.726;2023-02-28T11:21:22;24.20;39.40
13052;DHT22;6592;47.484;9.726;2023-02-28T11:23:57;24.50;38.90
13052;DHT22;6592;47.484;9.726;2023-02-28T11:26:41;24.60;39.00
13052;DHT22;6592;47.484;9.726;2023-02-28T11:29:18;23.90;39.10
13052;DHT22;6592;47.484;9.726;2023-02-28T11:32:09;23.40;39.30
13052;DHT22;6592;47.484;9.726;2023-02-28T11:34:41;23.50;39.50
13052;DHT22;6592;47.484;9.726;2023-02-28T11:37:14;23.10;39.50
13052;DHT22;6592;47.484;9.726;2023-02-28T11:39:45;23.60;40.40
13052;DHT22;6592;47.484;9.726;2023-02-28T11:42:28;23.60;38.60
13052;DHT22;6592;47.484;9.726;2023-02-28T11:45:11;23.90;39.60
13052;DHT22;6592;47.484;9.726;2023-02-28T11:47:48;23.80;38.60
13052;DHT22;6592;47.484;9.726;2023-02-28T11:50:32;23.40;38.70
13052;DHT22;6592;47.484;9.726;2023-02-28T11:53:17;23.00;38.80
13052;DHT22;6592;47.484;9.726;2023-02-28T11:55:53;22.90;38.10
13052;DHT22;6592;47.484;9.726;2023-02-28T11:58:43;23.00;39.40
13052;DHT22;6592;47.484;9.726;2023-02-28T12:01:32;22.30;38.80
13052;DHT22;6592;47.484;9.726;2023-02-28T12:04:15;22.40;39.70
13052;DHT22;6592;47.484;9.726;2023-02-28T12:06:45;22.20;40.00
13052;DHT22;6592;47.484;9.726;2023-02-28T12:09:29;21.90;39.90
13052;DHT22;6592;47.484;9.726;2023-02-28T12:12:07;22.10;40.30
13052;DHT22;6592;47.484;9.726;2023-02-28T12:15:05;21.60;40.60
13052;DHT22;6592;47.484;9.726;2023-02-28T12:17:51;21.20;40.20
13052;DHT22;6592;47.484;9.726;2023-02-28T12:20:27;20.30;41.50
13052;DHT22;6592;47.484;9.726;2023-02-28T12:23:23;20.80;42.00
13052;DHT22;6592;47.484;9.726;2023-02-28T12:26:02;21.40;41.30
13052;DHT22;6592;47.484;9.726;2023-02-28T12:28:37;20.90;40.90
13052;DHT22;6592;47.484;9.726;2023-02-28T12:31:09;20.50;41.30
13052;DHT22;6592;47.484;9.726;2023-02-28T12:33:42;19.90;42.90
13052;DHT22;6592;47.484;9.726;2023-02-28T12:36:16;19.60;42.50
13052;DHT22;6592;47.484;9.726;2023-02-28T12:38:48;19.50;43.30
13052;DHT22;6592;47.484;9.726;2023-02-28T12:41:27;19.50;43.40
13052;DHT22;6592;47.484;9.726;2023-02-28T12:44:02;18.90;44.50
13052;DHT22;6592;47.484;9.726;2023-02-28T12:46:36;17.90;43.80
13052;DHT22;6592;47.484;9.726;2023-02-28T12:49:09;17.10;45.80
13052;DHT22;6592;47.484;9.726;2023-02-28T12:51:39;16.20;47.50
13052;DHT22;6592;47.484;9.726;2023-02-28T12:54:16;15.40;48.50
13052;DHT22;6592;47.484;9.726;2023-02-28T12:56:49;15.00;49.30
13052;DHT22;6592;47.484;9.726;2023-02-28T12:59:27;14.70;50.10
13052;DHT22;6592;47.484;9.726;2023-02-28T13:05:17;15.30;50.50
13052;DHT22;6592;47.484;9.726;2023-02-28T13:08:16;15.90;49.60
13052;DHT22;6592;47.484;9.726;2023-02-28T13:10:50;16.00;48.60
13052;DHT22;6592;47.484;9.726;2023-02-28T13:13:24;15.60;48.90
13052;DHT22;6592;47.484;9.726;2023-02-28T13:16:03;15.00;49.90
13052;DHT22;6592;47.484;9.726;2023-02-28T13:18:35;14.90;51.10
13052;DHT22;6592;47.484;9.726;2023-02-28T13:21:07;15.00;50.70
13052;DHT22;6592;47.484;9.726;2023-02-28T13:23:58;15.20;51.00
13052;DHT22;6592;47.484;9.726;2023-02-28T13:29:42;15.70;49.80
13052;DHT22;6592;47.484;9.726;2023-02-28T13:32:37;15.30;50.10
13052;DHT22;6592;47.484;9.726;2023-02-28T13:35:35;15.30;50.90
13052;DHT22;6592;47.484;9.726;2023-02-28T13:38:32;14.50;51.80
13052;DHT22;6592;47.484;9.726;2023-02-28T13:44:09;14.60;52.30
13052;DHT22;6592;47.484;9.726;2023-02-28T13:49:45;15.60;50.50
13052;DHT22;6592;47.484;9.726;2023-02-28T13:52:18;16.30;50.70
13052;DHT22;6592;47.484;9.726;2023-02-28T13:57:49;16.90;49.50
13052;DHT22;6592;47.484;9.726;2023-02-28T14:00:35;17.30;49.10
13052;DHT22;6592;47.484;9.726;2023-02-28T14:03:32;17.40;48.70
13052;DHT22;6592;47.484;9.726;2023-02-28T14:06:24;17.30;49.60
13052;DHT22;6592;47.484;9.726;2023-02-28T14:08:58;17.40;48.80
13052;DHT22;6592;47.484;9.726;2023-02-28T14:11:30;17.40;48.40
13052;DHT22;6592;47.484;9.726;2023-02-28T14:14:00;17.20;48.30
13052;DHT22;6592;47.484;9.726;2023-02-28T14:16:37;17.00;48.50
13052;DHT22;6592;47.484;9.726;2023-02-28T14:19:12;16.50;49.40
13052;DHT22;6592;47.484;9.726;2023-02-28T14:21:58;15.80;49.90
13052;DHT22;6592;47.484;9.726;2023-02-28T14:24:51;15.30;50.30
13052;DHT22;6592;47.484;9.726;2023-02-28T14:27:32;14.70;51.80
13052;DHT22;6592;47.484;9.726;2023-02-28T14:33:31;13.50;54.40
13052;DHT22;6592;47.484;9.726;2023-02-28T14:36:12;13.50;54.40
13052;DHT22;6592;47.484;9.726;2023-02-28T14:38:46;13.20;55.10
13052;DHT22;6592;47.484;9.726;2023-02-28T14:41:19;12.70;55.90
13052;DHT22;6592;47.484;9.726;2023-02-28T14:43:54;12.30;56.70
13052;DHT22;6592;47.484;9.726;2023-02-28T14:46:25;12.20;57.40
13052;DHT22;6592;47.484;9.726;2023-02-28T14:48:56;11.60;58.20
13052;DHT22;6592;47.484;9.726;2023-02-28T14:51:24;11.20;58.90
13052;DHT22;6592;47.484;9.726;2023-02-28T14:53:57;10.90;60.10
13052;DHT22;6592;47.484;9.726;2023-02-28T14:56:28;10.70;59.90
13052;DHT22;6592;47.484;9.726;2023-02-28T14:58:58;10.40;59.70
13052;DHT22;6592;47.484;9.726;2023-02-28T15:01:26;10.20;60.50
13052;DHT22;6592;47.484;9.726;2023-02-28T15:04:00;10.10;62.00
13052;DHT22;6592;47.484;9.726;2023-02-28T15:06:30;9.80;64.00
13052;DHT22;6592;47.484;9.726;2023-02-28T15:09:11;9.40;65.40
13052;DHT22;6592;47.484;9.726;2023-02-28T15:11:44;9.00;67.40
13052;DHT22;6592;47.484;9.726;2023-02-28T15:14:17;8.70;69.10
13052;DHT22;6592;47.484;9.726;2023-02-28T15:16:50;8.20;68.30
13052;DHT22;6592;47.484;9.726;2023-02-28T15:19:23;8.10;69.50
13052;DHT22;6592;47.484;9.726;2023-02-28T15:21:55;7.80;70.60
13052;DHT22;6592;47.484;9.726;2023-02-28T15:24:33;7.70;70.80
13052;DHT22;6592;47.484;9.726;2023-02-28T15:27:05;7.50;71.50
13052;DHT22;6592;47.484;9.726;2023-02-28T15:29:43;7.50;71.20
13052;DHT22;6592;47.484;9.726;2023-02-28T15:32:24;7.40;71.30
13052;DHT22;6592;47.484;9.726;2023-02-28T15:34:54;7.30;71.20
13052;DHT22;6592;47.484;9.726;2023-02-28T15:37:29;6.90;73.20
13052;DHT22;6592;47.484;9.726;2023-02-28T15:40:10;6.40;74.80
13052;DHT22;6592;47.484;9.726;2023-02-28T15:42:39;6.10;76.00
13052;DHT22;6592;47.484;9.726;2023-02-28T15:45:30;6.00;76.50
13052;DHT22;6592;47.484;9.726;2023-02-28T15:48:02;5.80;77.90
13052;DHT22;6592;47.484;9.726;2023-02-28T15:50:40;5.50;78.40
13052;DHT22;6592;47.484;9.726;2023-02-28T15:53:13;5.30;80.40
13052;DHT22;6592;47.484;9.726;2023-02-28T15:55:45;5.10;81.10
13052;DHT22;6592;47.484;9.726;2023-02-28T15:58:21;4.90;82.30
13052;DHT22;6592;47.484;9.726;2023-02-28T16:01:03;4.80;82.90
13052;DHT22;6592;47.484;9.726;2023-02-28T16:03:44;4.70;85.10
13052;DHT22;6592;47.484;9.726;2023-02-28T16:06:39;4.50;86.10
13052;DHT22;6592;47.484;9.726;2023-02-28T16:09:11;4.40;87.20
13052;DHT22;6592;47.484;9.726;2023-02-28T16:11:43;4.20;89.00
13052;DHT22;6592;47.484;9.726;2023-02-28T16:14:17;4.00;90.40
13052;DHT22;6592;47.484;9.726;2023-02-28T16:16:48;3.80;91.20
13052;DHT22;6592;47.484;9.726;2023-02-28T16:19:17;3.70;92.10
13052;DHT22;6592;47.484;9.726;2023-02-28T16:21:46;3.60;92.60
13052;DHT22;6592;47.484;9.726;2023-02-28T16:24:14;3.50;93.40
13052;DHT22;6592;47.484;9.726;2023-02-28T16:26:46;3.40;94.40
13052;DHT22;6592;47.484;9.726;2023-02-28T16:29:19;3.30;95.90
13052;DHT22;6592;47.484;9.726;2023-02-28T16:31:51;3.20;96.90
13052;DHT22;6592;47.484;9.726;2023-02-28T16:34:20;3.10;98.20
13052;DHT22;6592;47.484;9.726;2023-02-28T16:36:49;3.00;99.90
13052;DHT22;6592;47.484;9.726;2023-02-28T16:39:17;3.00;99.90
13052;DHT22;6592;47.484;9.726;2023-02-28T16:41:49;2.90;99.90
13052;DHT22;6592;47.484;9.726;2023-02-28T16:44:27;2.80;99.90
13052;DHT22;6592;47.484;9.726;2023-02-28T16:46:56;2.80;99.90
13052;DHT22;6592;47.484;9.726;2023-02-28T16:49:24;2.80;99.90